Terminal Aerodrome Forecast
Issued by NWS

Home | Current Version | Previous Version | Text Only | Print | Product List | Glossary On
Versions: 1 2 3 4 5 6 7 8 9 10 11 12 13 14 15
000
FTUS43 KDDC 172300
TAFGCK
TAF
KGCK 172333Z 1800/1824 17010KT P6SM SKC
     FM180900 19010KT P6SM BKN025
     FM181500 18020G30KT P6SM SCT250=

USA.gov is the U.S. government's official web portal to all federal, state and local government web resources and services.